Time;durP1;ratioP1;P1;durP2;ratioP2;P2;SDS_P1;SDS_P2;PMS_P1;PMS_P2;Temp;Humidity;BMP_temperature;BMP_pressure;BME280_temperature;BME280_humidity;BME280_pressure;Samples;Min_cycle;Max_cycle;Signal;HPM_P1;HPM_P2
2021/11/22 00:01:31;;;;;;;8.80;5.00;;;;;;;3.32;85.90;97350.19;1675512;84;21002;-77
2021/11/22 00:03:57;;;;;;;9.15;4.92;;;;;;;3.32;85.69;97347.56;1626324;87;21533;-77
2021/11/22 00:06:24;;;;;;;10.32;5.30;;;;;;;3.29;85.57;97344.08;1615604;88;21010;-77
2021/11/22 00:08:51;;;;;;;8.58;5.40;;;;;;;3.26;85.83;97341.95;1628874;88;21042;-77
2021/11/22 00:11:17;;;;;;;10.80;5.58;;;;;;;3.29;85.71;97342.77;1625602;87;21562;-77
2021/11/22 00:13:44;;;;;;;8.23;4.87;;;;;;;3.33;85.74;97341.44;1624059;87;21026;-77
2021/11/22 00:16:10;;;;;;;9.90;5.55;;;;;;;3.35;85.71;97340.53;1673975;84;21005;-77
2021/11/22 00:18:37;;;;;;;9.75;5.20;;;;;;;3.39;85.98;97333.50;1679255;84;20993;-77
2021/11/22 00:21:03;;;;;;;9.83;5.20;;;;;;;3.43;86.09;97341.33;1671916;84;21020;-77
2021/11/22 00:23:33;;;;;;;9.60;5.50;;;;;;;3.47;85.97;97343.89;1673096;84;20992;-77
2021/11/22 00:25:59;;;;;;;8.35;5.17;;;;;;;3.53;86.18;97339.45;1676938;85;21008;-78
2021/11/22 00:28:26;;;;;;;9.65;5.17;;;;;;;3.55;85.96;97342.94;1676150;84;21085;-79
2021/11/22 00:30:54;;;;;;;9.63;5.30;;;;;;;3.56;85.86;97349.91;1676971;84;21478;-78
2021/11/22 00:33:26;;;;;;;9.98;5.05;;;;;;;3.59;85.86;97352.05;1662879;84;21514;-78
2021/11/22 00:36:10;;;;;;;8.40;4.83;;;;;;;3.63;86.21;97348.52;1601158;89;21005;-77
2021/11/22 00:38:36;;;;;;;8.40;4.80;;;;;;;3.69;86.21;97348.43;1652798;84;21022;-77
2021/11/22 00:41:03;;;;;;;6.85;4.00;;;;;;;3.68;85.85;97350.20;1679842;84;21000;-78
2021/11/22 00:43:30;;;;;;;7.60;4.50;;;;;;;3.72;85.94;97349.72;1676281;84;21065;-78
2021/11/22 00:45:56;;;;;;;8.70;4.92;;;;;;;3.73;85.60;97350.13;1680334;84;21073;-79
2021/11/22 00:48:25;;;;;;;9.35;5.10;;;;;;;3.71;85.56;97347.98;1674069;84;20984;-79
2021/11/22 00:50:54;;;;;;;7.60;4.72;;;;;;;3.72;85.28;97354.08;1679878;84;21440;-78
2021/11/22 00:53:22;;;;;;;8.13;4.58;;;;;;;3.70;85.36;97351.50;1667916;84;21018;-78
2021/11/22 00:55:49;;;;;;;7.90;4.72;;;;;;;3.65;85.03;97348.92;1676668;84;21049;-77
2021/11/22 00:58:17;;;;;;;8.08;4.95;;;;;;;3.63;85.06;97349.82;1667877;84;21446;-77
2021/11/22 01:00:45;;;;;;;7.90;4.55;;;;;;;3.61;84.82;97350.30;1659281;85;21101;-77
2021/11/22 01:03:12;;;;;;;9.00;4.30;;;;;;;3.47;84.45;97344.77;1650011;85;20966;-77
2021/11/22 01:05:39;;;;;;;7.12;4.35;;;;;;;3.35;84.64;97346.20;1657902;85;21126;-77
2021/11/22 01:08:05;;;;;;;6.75;3.92;;;;;;;3.31;84.87;97353.23;1669093;85;21478;-77
2021/11/22 01:10:33;;;;;;;6.95;4.17;;;;;;;3.28;85.09;97354.14;1681012;84;21459;-77
2021/11/22 01:13:00;;;;;;;8.98;4.87;;;;;;;3.27;85.02;97355.03;1689144;84;20978;-77
2021/11/22 01:15:27;;;;;;;8.43;4.87;;;;;;;3.24;85.04;97358.13;1660662;86;21441;-77
2021/11/22 01:17:54;;;;;;;7.95;4.72;;;;;;;3.19;85.21;97354.23;1647828;87;21479;-77
2021/11/22 01:20:31;;;;;;;7.45;4.35;;;;;;;3.16;85.08;97371.30;1638531;87;21076;-77
2021/11/22 01:23:05;;;;;;;6.45;4.33;;;;;;;3.15;85.00;97366.92;1588187;89;20971;-77
2021/11/22 01:25:33;;;;;;;8.18;4.87;;;;;;;3.14;85.25;97373.93;1625361;87;20966;-77
2021/11/22 01:28:03;;;;;;;9.33;4.75;;;;;;;3.14;85.19;97369.13;1627459;88;21042;-77
2021/11/22 01:30:30;;;;;;;10.28;4.90;;;;;;;3.09;85.07;97372.23;1646702;87;22165;-77
2021/11/22 01:32:58;;;;;;;7.97;4.40;;;;;;;3.07;84.76;97378.78;1640361;86;21427;-77
2021/11/22 01:35:25;;;;;;;7.62;4.42;;;;;;;3.03;84.78;97371.84;1624199;88;21535;-77
2021/11/22 01:37:53;;;;;;;8.65;4.87;;;;;;;3.02;84.80;97379.27;1622900;88;21486;-76
2021/11/22 01:40:24;;;;;;;9.50;4.80;;;;;;;2.99;84.96;97373.63;1644242;87;21431;-77
2021/11/22 01:42:54;;;;;;;8.43;4.53;;;;;;;3.00;84.91;97376.66;1650403;87;21522;-77
2021/11/22 01:45:23;;;;;;;7.53;4.20;;;;;;;2.99;84.86;97382.78;1654632;87;21002;-77
2021/11/22 01:47:52;;;;;;;10.43;5.33;;;;;;;2.99;84.83;97383.24;1654572;87;21106;-77
2021/11/22 01:50:21;;;;;;;6.60;4.40;;;;;;;3.00;85.01;97382.36;1651893;87;21025;-77
2021/11/22 01:52:50;;;;;;;9.05;4.58;;;;;;;2.97;84.78;97370.59;1639738;87;21064;-77
2021/11/22 01:55:20;;;;;;;8.88;4.80;;;;;;;2.93;84.73;97380.23;1654679;87;21077;-77
2021/11/22 01:57:49;;;;;;;10.43;5.12;;;;;;;2.91;84.47;97388.55;1654709;87;21730;-77
2021/11/22 02:00:33;;;;;;;8.73;5.03;;;;;;;2.88;84.63;97389.45;1638882;86;21077;-77
2021/11/22 02:03:03;;;;;;;8.70;4.60;;;;;;;2.74;84.60;97373.84;1621279;87;21086;-77
2021/11/22 02:05:32;;;;;;;7.67;4.25;;;;;;;2.74;84.60;97373.84;1634319;87;21060;-77
2021/11/22 02:08:00;;;;;;;7.22;4.37;;;;;;;2.77;84.85;97382.98;1647353;87;21618;-77
2021/11/22 02:10:28;;;;;;;8.55;4.33;;;;;;;2.80;84.85;97380.78;1626355;86;21046;-77
2021/11/22 02:12:57;;;;;;;9.58;5.17;;;;;;;2.81;84.86;97381.20;1672403;84;21122;-77
2021/11/22 02:15:28;;;;;;;8.18;5.08;;;;;;;2.81;85.01;97374.66;1700946;84;21104;-77
2021/11/22 02:17:58;;;;;;;8.85;5.00;;;;;;;2.81;84.98;97384.24;1698078;84;21041;-77
2021/11/22 02:20:29;;;;;;;9.58;5.45;;;;;;;2.80;84.96;97374.66;1642866;85;21039;-77
2021/11/22 02:23:03;;;;;;;8.20;4.85;;;;;;;2.77;85.61;97379.06;1671025;84;21001;-77
2021/11/22 02:25:32;;;;;;;9.25;5.55;;;;;;;2.78;85.22;97379.91;1682656;83;21360;-77
2021/11/22 02:28:00;;;;;;;11.08;5.90;;;;;;;2.80;85.07;97380.78;1641580;87;21037;-77
2021/11/22 02:30:32;;;;;;;8.50;5.25;;;;;;;2.83;85.14;97387.28;1672931;85;20997;-77
2021/11/22 02:33:03;;;;;;;10.70;5.70;;;;;;;2.86;85.37;97391.19;1676900;84;21005;-78
2021/11/22 02:35:35;;;;;;;10.55;5.85;;;;;;;2.92;85.40;97381.55;1674443;85;21001;-77
2021/11/22 02:38:04;;;;;;;9.95;5.25;;;;;;;2.96;85.50;97380.64;1632904;88;21036;-77
2021/11/22 02:40:35;;;;;;;9.58;5.00;;;;;;;2.97;85.79;97381.94;1608356;88;21087;-77
2021/11/22 02:43:03;;;;;;;9.43;4.90;;;;;;;3.01;85.64;97386.27;1611578;88;21482;-77
2021/11/22 02:45:30;;;;;;;9.60;5.75;;;;;;;3.08;85.75;97384.90;1628868;87;21465;-77
2021/11/22 02:47:57;;;;;;;9.63;5.28;;;;;;;3.12;85.67;97387.92;1622871;87;20990;-77
2021/11/22 02:50:24;;;;;;;8.10;4.58;;;;;;;3.16;86.01;97383.94;1617270;87;21077;-77
2021/11/22 02:52:52;;;;;;;8.98;5.12;;;;;;;3.19;85.72;97387.42;1608946;87;21040;-77
2021/11/22 02:55:20;;;;;;;9.35;5.00;;;;;;;3.21;85.84;97382.59;1625381;88;21040;-77
2021/11/22 02:57:47;;;;;;;9.43;5.25;;;;;;;3.26;85.94;97379.92;1625395;88;21334;-77
2021/11/22 03:00:27;;;;;;;10.75;5.05;;;;;;;3.30;85.76;97378.58;1611629;86;21052;-77
2021/11/22 03:02:53;;;;;;;9.90;5.17;;;;;;;3.33;85.46;97385.53;1609029;88;21020;-78
2021/11/22 03:05:22;;;;;;;8.33;4.35;;;;;;;3.11;83.97;97392.73;1625453;88;21036;-77
2021/11/22 03:07:53;;;;;;;9.78;4.85;;;;;;;3.07;84.65;97391.02;1624034;86;21044;-78
2021/11/22 03:10:25;;;;;;;11.05;5.42;;;;;;;3.05;84.87;97393.65;1630638;87;21080;-78
2021/11/22 03:12:53;;;;;;;10.63;5.17;;;;;;;3.06;84.87;97389.30;1629629;87;20981;-78
2021/11/22 03:15:22;;;;;;;10.45;5.47;;;;;;;3.03;84.87;97392.78;1631027;87;21116;-78
2021/11/22 03:17:53;;;;;;;9.58;5.62;;;;;;;2.99;84.82;97393.25;1625515;88;21012;-78
2021/11/22 03:20:22;;;;;;;11.85;5.83;;;;;;;2.96;84.76;97402.89;1624802;88;21081;-78
2021/11/22 03:22:52;;;;;;;9.55;5.40;;;;;;;2.90;85.07;97397.26;1615681;88;21044;-78
2021/11/22 03:25:23;;;;;;;10.40;5.37;;;;;;;2.86;84.96;97399.04;1604120;88;21024;-78
2021/11/22 03:27:52;;;;;;;10.60;5.17;;;;;;;2.84;84.92;97401.24;1625425;88;20981;-78
2021/11/22 03:30:20;;;;;;;9.23;4.78;;;;;;;2.79;85.21;97398.67;1624910;88;21477;-78
2021/11/22 03:32:46;;;;;;;11.73;5.58;;;;;;;2.75;85.16;97395.66;1604396;88;21049;-78
2021/11/22 03:35:16;;;;;;;11.00;5.30;;;;;;;2.73;85.06;97393.05;1614451;87;21653;-78
2021/11/22 03:37:44;;;;;;;9.80;5.05;;;;;;;2.72;85.13;97396.97;1662955;84;21089;-78
2021/11/22 03:40:12;;;;;;;9.53;4.87;;;;;;;2.67;85.25;97397.02;1652082;87;21040;-78
2021/11/22 03:42:42;;;;;;;10.98;4.97;;;;;;;2.62;85.10;97393.11;1681717;84;21022;-78
2021/11/22 03:45:11;;;;;;;8.98;4.80;;;;;;;2.61;85.08;97397.05;1669456;85;21049;-78
2021/11/22 03:47:38;;;;;;;10.80;5.20;;;;;;;2.54;85.53;97397.55;1670012;85;21522;-78
2021/11/22 03:50:06;;;;;;;10.15;5.47;;;;;;;2.55;85.50;97394.48;1684217;85;21529;-78
2021/11/22 03:52:32;;;;;;;9.78;5.67;;;;;;;2.56;85.42;97401.44;1684239;83;21434;-78
2021/11/22 03:54:59;;;;;;;9.30;5.05;;;;;;;2.54;85.74;97399.29;1668518;85;21033;-78
2021/11/22 03:57:27;;;;;;;10.30;5.37;;;;;;;2.50;85.27;97401.91;1669266;85;21427;-78
2021/11/22 03:59:59;;;;;;;10.55;5.87;;;;;;;2.47;85.58;97411.11;1670182;84;21026;-78
2021/11/22 04:02:30;;;;;;;11.97;5.72;;;;;;;2.47;85.64;97408.92;1641165;86;21450;-78
2021/11/22 04:04:58;;;;;;;11.83;5.40;;;;;;;2.48;85.61;97409.34;1642020;87;21058;-78
2021/11/22 04:07:25;;;;;;;11.75;5.50;;;;;;;2.50;85.76;97403.69;1635242;86;21073;-78
2021/11/22 04:09:54;;;;;;;10.00;5.55;;;;;;;2.49;85.76;97401.50;1676788;84;21045;-78
2021/11/22 04:12:23;;;;;;;10.93;6.22;;;;;;;2.52;86.16;97408.45;1674415;84;21022;-78
2021/11/22 04:14:50;;;;;;;12.28;6.28;;;;;;;2.53;86.00;97410.19;1657487;84;21030;-78
2021/11/22 04:17:18;;;;;;;11.08;5.80;;;;;;;2.53;85.88;97410.64;1676092;85;21068;-78
2021/11/22 04:19:45;;;;;;;9.75;5.58;;;;;;;2.47;86.52;97413.73;1691649;84;21088;-78
2021/11/22 04:22:12;;;;;;;9.60;5.33;;;;;;;2.43;86.51;97402.85;1674421;84;21025;-78
2021/11/22 04:24:42;;;;;;;13.45;6.67;;;;;;;2.41;86.47;97412.44;1683812;85;21093;-78
2021/11/22 04:27:11;;;;;;;10.35;5.58;;;;;;;2.44;85.97;97412.86;1649288;87;21478;-78
2021/11/22 04:29:40;;;;;;;12.35;6.28;;;;;;;2.48;85.75;97419.81;1685362;84;21051;-78
2021/11/22 04:32:09;;;;;;;12.28;6.37;;;;;;;2.50;85.68;97418.07;1670733;84;21531;-78
2021/11/22 04:34:38;;;;;;;12.15;6.20;;;;;;;2.53;85.74;97422.41;1667973;85;21016;-78
2021/11/22 04:37:06;;;;;;;11.73;6.40;;;;;;;2.55;86.23;97420.64;1686172;84;21029;-78
2021/11/22 04:39:33;;;;;;;12.82;6.37;;;;;;;2.55;86.34;97419.33;1646213;86;21009;-78
2021/11/22 04:42:02;;;;;;;12.05;6.05;;;;;;;2.56;86.65;97424.98;1675233;85;21029;-78
2021/11/22 04:44:28;;;;;;;11.48;5.85;;;;;;;2.60;86.51;97430.20;1682133;84;21017;-78
2021/11/22 04:46:56;;;;;;;8.75;5.30;;;;;;;2.62;86.61;97423.20;1696646;84;21037;-78
2021/11/22 04:49:23;;;;;;;11.53;5.87;;;;;;;2.68;86.31;97425.34;1696808;83;21021;-78
2021/11/22 04:51:52;;;;;;;10.40;5.60;;;;;;;2.70;86.48;97427.53;1642946;87;21520;-78
2021/11/22 04:54:19;;;;;;;11.78;6.28;;;;;;;2.73;86.59;97425.75;1646751;87;21101;-78
2021/11/22 04:56:46;;;;;;;10.43;6.03;;;;;;;2.70;86.15;97432.30;1646020;87;21396;-78
2021/11/22 04:59:12;;;;;;;11.68;6.20;;;;;;;2.69;86.28;97431.03;1682027;84;20970;-78
2021/11/22 05:01:40;;;;;;;12.40;6.20;;;;;;;2.72;86.45;97439.72;1693793;84;21001;-78
2021/11/22 05:04:07;;;;;;;8.85;4.90;;;;;;;2.70;86.02;97436.23;1696201;84;21009;-78
2021/11/22 05:06:33;;;;;;;9.08;5.20;;;;;;;2.70;85.97;97449.77;1688011;85;21024;-78
2021/11/22 05:09:02;;;;;;;8.93;5.08;;;;;;;2.64;85.79;97446.74;1679378;84;21010;-78
2021/11/22 05:11:28;;;;;;;11.43;6.20;;;;;;;2.59;85.55;97443.30;1658914;85;21049;-78
2021/11/22 05:13:55;;;;;;;11.28;5.67;;;;;;;2.46;86.05;97455.13;1641227;86;21058;-78
2021/11/22 05:16:21;;;;;;;10.60;5.50;;;;;;;2.37;86.48;97457.82;1669185;85;21014;-78
2021/11/22 05:18:48;;;;;;;10.78;5.58;;;;;;;2.33;86.37;97461.32;1674288;84;21034;-78
2021/11/22 05:21:17;;;;;;;11.50;5.87;;;;;;;2.25;86.80;97453.52;1677833;84;20998;-78
2021/11/22 05:23:43;;;;;;;9.80;5.45;;;;;;;2.21;86.82;97455.71;1675880;85;21018;-78
2021/11/22 05:26:10;;;;;;;9.55;5.67;;;;;;;2.19;87.01;97462.25;1669580;85;21080;-78
2021/11/22 05:28:39;;;;;;;10.70;5.47;;;;;;;2.13;87.23;97458.37;1641875;87;21093;-78
2021/11/22 05:31:05;;;;;;;10.78;5.58;;;;;;;2.11;87.39;97456.17;1614790;87;20989;-78
2021/11/22 05:33:34;;;;;;;10.48;5.33;;;;;;;2.05;87.85;97461.44;1644345;87;21451;-78
2021/11/22 05:36:04;;;;;;;9.08;5.28;;;;;;;1.97;88.55;97462.36;1676030;85;21026;-78
2021/11/22 05:38:30;;;;;;;9.35;4.95;;;;;;;1.95;88.27;97465.84;1689998;84;21498;-78
2021/11/22 05:40:59;;;;;;;10.58;5.47;;;;;;;1.96;88.19;97466.28;1680301;84;20998;-78
2021/11/22 05:43:26;;;;;;;10.45;5.55;;;;;;;1.97;88.28;97464.97;1678201;84;21029;-78
2021/11/22 05:45:53;;;;;;;10.28;5.33;;;;;;;1.96;88.19;97464.97;1693165;84;21320;-78
2021/11/22 05:48:19;;;;;;;10.43;5.65;;;;;;;2.05;87.73;97471.89;1683527;85;21045;-78
2021/11/22 05:50:53;;;;;;;11.12;5.75;;;;;;;2.08;88.00;97469.28;1641338;86;21018;-78
2021/11/22 05:53:20;;;;;;;12.82;6.10;;;;;;;2.13;87.92;97477.09;1669661;86;21050;-78
2021/11/22 05:55:50;;;;;;;11.05;6.12;;;;;;;2.09;88.08;97478.43;1669612;84;20989;-78
2021/11/22 05:58:15;;;;;;;14.55;6.85;;;;;;;2.12;87.91;97477.55;1669949;85;21070;-78
2021/11/22 06:00:43;;;;;;;12.20;6.55;;;;;;;2.13;87.90;97477.09;1671336;84;21085;-80
2021/11/22 06:03:10;;;;;;;10.98;6.33;;;;;;;2.16;87.79;97479.25;1649777;87;21025;-78
2021/11/22 06:05:37;;;;;;;10.85;5.90;;;;;;;2.13;87.70;97481.89;1669385;85;20985;-77
2021/11/22 06:08:05;;;;;;;12.05;6.03;;;;;;;2.19;87.73;97484.90;1679223;85;20998;-77
2021/11/22 06:10:34;;;;;;;11.00;6.37;;;;;;;2.22;87.42;97480.98;1646574;87;21017;-78
2021/11/22 06:13:00;;;;;;;11.60;5.65;;;;;;;2.22;87.14;97488.39;1647703;86;21057;-78
2021/11/22 06:15:27;;;;;;;11.63;6.00;;;;;;;2.22;86.98;97483.59;1643688;87;21002;-78
2021/11/22 06:17:54;;;;;;;10.35;5.70;;;;;;;2.23;87.01;97484.90;1635180;86;21010;-77
2021/11/22 06:20:21;;;;;;;10.48;5.95;;;;;;;2.27;86.68;97488.78;1642471;87;21531;-77
2021/11/22 06:22:47;;;;;;;10.65;5.92;;;;;;;2.20;86.90;97495.81;1680358;84;21032;-78
2021/11/22 06:25:14;;;;;;;9.15;5.83;;;;;;;2.19;86.93;97501.89;1689376;83;21491;-78
2021/11/22 06:27:40;;;;;;;17.57;9.48;;;;;;;2.13;86.90;97492.78;1689764;84;20995;-78
2021/11/22 06:30:10;;;;;;;13.78;6.60;;;;;;;2.11;86.56;97501.50;1680581;84;20993;-78
2021/11/22 06:32:37;;;;;;;12.28;5.95;;;;;;;2.10;86.50;97502.38;1672657;84;20989;-78
2021/11/22 06:35:05;;;;;;;11.83;6.65;;;;;;;2.08;87.10;97504.57;1663532;85;20985;-78
2021/11/22 06:37:34;;;;;;;11.50;5.90;;;;;;;2.05;86.96;97506.76;1642254;87;21097;-78
2021/11/22 06:40:08;;;;;;;9.18;5.20;;;;;;;1.92;87.34;97514.20;1663027;86;21093;-80
2021/11/22 06:42:36;;;;;;;11.10;5.78;;;;;;;1.88;87.41;97513.34;1666456;85;21054;-79
2021/11/22 06:45:07;;;;;;;9.68;5.50;;;;;;;1.94;87.12;97518.97;1668700;86;21097;-79
2021/11/22 06:47:34;;;;;;;9.78;5.58;;;;;;;1.97;87.18;97520.28;1671390;84;20961;-79
2021/11/22 06:50:02;;;;;;;9.93;5.30;;;;;;;1.89;87.69;97522.03;1642992;86;21057;-78
2021/11/22 06:52:31;;;;;;;10.75;5.15;;;;;;;1.86;87.50;97518.14;1644461;86;20982;-78
2021/11/22 06:54:58;;;;;;;10.53;5.30;;;;;;;1.92;87.59;97516.81;1680829;85;21341;-79
2021/11/22 06:57:25;;;;;;;9.23;4.87;;;;;;;1.90;87.58;97519.42;1676281;85;22127;-79
2021/11/22 06:59:52;;;;;;;10.25;4.60;;;;;;;1.92;87.37;97525.53;1679078;84;20990;-80
2021/11/22 07:02:18;;;;;;;9.68;4.90;;;;;;;1.99;87.19;97525.05;1681844;84;21012;-80
2021/11/22 07:04:46;;;;;;;9.83;5.00;;;;;;;2.00;86.99;97524.20;1677482;84;21057;-80
2021/11/22 07:07:15;;;;;;;10.30;4.70;;;;;;;1.99;87.09;97522.44;1669450;84;21034;-80
2021/11/22 07:09:44;;;;;;;12.55;5.53;;;;;;;1.99;87.41;97530.28;1669430;85;21034;-81
2021/11/22 07:12:12;;;;;;;9.60;5.10;;;;;;;2.04;87.26;97528.52;1669407;83;21006;-80
2021/11/22 07:14:40;;;;;;;10.03;4.87;;;;;;;2.09;87.15;97531.14;1669837;85;21065;-81
2021/11/22 07:17:07;;;;;;;9.50;5.03;;;;;;;2.17;87.23;97519.34;1652386;87;20985;-81
2021/11/22 07:19:34;;;;;;;10.18;4.90;;;;;;;2.19;86.86;97518.89;1682518;84;21078;-81
2021/11/22 07:22:07;;;;;;;7.90;4.72;;;;;;;2.21;86.86;97517.16;1683580;84;21447;-81
2021/11/22 07:24:39;;;;;;;9.68;4.65;;;;;;;2.27;86.98;97520.16;1685300;84;21044;-80
2021/11/22 07:27:08;;;;;;;10.43;5.22;;;;;;;2.30;86.88;97521.47;1685838;84;21052;-81
2021/11/22 07:29:36;;;;;;;9.58;5.17;;;;;;;2.34;87.17;97521.89;1678259;84;20974;-81
2021/11/22 07:32:04;;;;;;;12.70;5.42;;;;;;;2.41;87.17;97521.44;1696798;84;21002;-80
2021/11/22 07:34:31;;;;;;;11.30;6.10;;;;;;;2.52;87.38;97522.70;1685052;84;21443;-80
2021/11/22 07:36:58;;;;;;;12.73;5.95;;;;;;;2.55;86.06;97525.28;1657319;85;21013;-80
2021/11/22 07:39:24;;;;;;;10.98;4.92;;;;;;;2.58;86.36;97533.98;1683624;83;21028;-80
2021/11/22 07:41:53;;;;;;;9.90;4.80;;;;;;;2.48;85.75;97530.98;1669671;85;21018;-80
2021/11/22 07:44:24;;;;;;;11.03;5.00;;;;;;;2.41;85.83;97523.59;1683253;85;21459;-80
2021/11/22 07:46:54;;;;;;;11.03;5.67;;;;;;;2.40;86.03;97528.40;1677987;83;21017;-80
2021/11/22 07:49:20;;;;;;;10.55;5.00;;;;;;;2.42;86.22;97522.73;1668289;84;21061;-79
2021/11/22 07:51:47;;;;;;;16.90;6.95;;;;;;;2.46;86.12;97525.75;1669910;86;21009;-79
2021/11/22 07:54:15;;;;;;;10.50;5.37;;;;;;;2.52;85.99;97527.47;1672516;85;20974;-79
2021/11/22 07:56:44;;;;;;;9.65;4.87;;;;;;;2.47;85.78;97525.32;1669719;84;20936;-78
2021/11/22 07:59:12;;;;;;;7.30;4.37;;;;;;;2.45;85.82;97533.17;1662030;84;21014;-80
2021/11/22 08:01:43;;;;;;;10.00;5.03;;;;;;;2.45;85.75;97526.63;1652574;85;21009;-78
2021/11/22 08:04:15;;;;;;;9.55;5.15;;;;;;;2.48;85.57;97535.78;1672541;85;21000;-81
2021/11/22 08:06:55;;;;;;;9.83;5.22;;;;;;;2.48;85.44;97533.16;1662530;85;20966;-81
2021/11/22 08:09:34;;;;;;;9.75;4.92;;;;;;;2.46;85.66;97530.98;1661387;85;21021;-81
2021/11/22 08:14:41;;;;;;;8.80;4.47;;;;;;;2.44;85.64;97532.74;1672284;84;21025;-81
2021/11/22 08:17:11;;;;;;;10.95;5.12;;;;;;;2.53;85.64;97522.67;1693667;83;21021;-83
2021/11/22 08:19:38;;;;;;;10.32;5.08;;;;;;;2.61;85.68;97537.89;1680998;84;21061;-81
2021/11/22 08:22:09;;;;;;;7.92;4.78;;;;;;;2.70;85.67;97545.28;1674482;84;21061;-79
2021/11/22 08:24:38;;;;;;;8.78;5.20;;;;;;;2.81;85.57;97529.49;1680771;84;21000;-80
2021/11/22 08:27:07;;;;;;;10.35;5.67;;;;;;;2.89;85.29;97535.56;1678591;84;21045;-80
2021/11/22 08:29:34;;;;;;;11.68;5.53;;;;;;;2.97;85.33;97529.84;1680394;84;21456;-80
2021/11/22 08:32:01;;;;;;;10.50;6.10;;;;;;;3.04;85.07;97538.07;1670924;85;20988;-80
2021/11/22 08:34:27;;;;;;;11.10;6.08;;;;;;;3.15;85.30;97541.05;1666336;83;21513;-78
2021/11/22 08:36:54;;;;;;;10.32;5.60;;;;;;;3.24;84.86;97542.30;1660850;84;21014;-79
2021/11/22 08:39:20;;;;;;;19.32;9.38;;;;;;;3.33;85.08;97541.81;1662403;85;21068;-79
2021/11/22 08:41:47;;;;;;;13.13;5.83;;;;;;;3.39;84.77;97536.08;1666776;85;21070;-78
2021/11/22 08:44:13;;;;;;;10.60;6.10;;;;;;;3.39;83.45;97540.02;1690621;83;20994;-77
2021/11/22 08:46:41;;;;;;;12.55;6.62;;;;;;;3.40;83.90;97547.41;1679127;85;21002;-78
2021/11/22 08:49:08;;;;;;;11.63;6.40;;;;;;;3.41;84.20;97543.48;1676719;85;21126;-78
2021/11/22 08:51:36;;;;;;;12.30;6.03;;;;;;;3.48;84.19;97542.14;1676469;86;21096;-80
2021/11/22 08:54:03;;;;;;;14.90;7.03;;;;;;;3.56;84.44;97545.11;1671982;83;21024;-78
2021/11/22 08:56:31;;;;;;;15.60;7.12;;;;;;;3.62;84.19;97533.72;1648078;86;21109;-79
2021/11/22 08:59:01;;;;;;;15.18;7.85;;;;;;;3.65;83.84;97531.52;1674494;84;21044;-78
2021/11/22 09:01:29;;;;;;;14.07;7.12;;;;;;;3.67;83.35;97535.86;1685472;84;21057;-78
2021/11/22 09:03:57;;;;;;;16.02;8.03;;;;;;;3.64;83.02;97537.61;1672719;83;21457;-79
2021/11/22 09:06:25;;;;;;;14.95;7.55;;;;;;;3.57;82.54;97530.24;1676680;83;21427;-80
2021/11/22 09:08:52;;;;;;;13.60;6.85;;;;;;;3.58;82.88;97533.31;1651054;87;21053;-80
2021/11/22 09:11:18;;;;;;;13.10;7.42;;;;;;;3.60;83.05;97537.20;1671832;85;21014;-79
2021/11/22 09:13:47;;;;;;;16.02;7.92;;;;;;;3.57;82.94;97542.03;1675194;84;21006;-80
2021/11/22 09:16:15;;;;;;;15.10;8.00;;;;;;;3.55;82.95;97532.02;1641453;86;21442;-80
2021/11/22 09:18:43;;;;;;;13.32;7.55;;;;;;;3.55;83.01;97528.97;1668986;84;21125;-81
2021/11/22 09:21:09;;;;;;;13.38;7.90;;;;;;;3.58;82.81;97529.81;1666373;86;21008;-80
2021/11/22 09:23:42;;;;;;;13.55;8.03;;;;;;;3.56;82.88;97527.20;1639090;85;21096;-80
2021/11/22 09:26:09;;;;;;;14.95;8.15;;;;;;;3.58;82.99;97529.81;1672092;84;20986;-80
2021/11/22 09:28:36;;;;;;;16.42;8.13;;;;;;;3.55;83.03;97525.47;1675395;86;21033;-82
2021/11/22 09:31:03;;;;;;;14.10;7.90;;;;;;;3.59;83.16;97527.19;1677554;86;21014;-79
2021/11/22 09:33:30;;;;;;;14.75;7.78;;;;;;;3.58;82.71;97524.14;1652028;85;20977;-80
2021/11/22 09:35:56;;;;;;;14.98;8.90;;;;;;;3.58;82.82;97533.31;1670291;85;21005;-78
2021/11/22 09:38:22;;;;;;;14.73;7.97;;;;;;;3.62;82.99;97535.45;1674597;84;21365;-77
2021/11/22 09:40:49;;;;;;;14.90;8.25;;;;;;;3.55;83.21;97539.45;1682592;84;21013;-77
2021/11/22 09:43:16;;;;;;;15.75;8.55;;;;;;;3.60;83.19;97538.09;1677114;84;21025;-76
2021/11/22 09:45:43;;;;;;;36.77;18.05;;;;;;;3.67;83.44;97528.42;1638592;87;20977;-78
2021/11/22 09:48:09;;;;;;;16.35;8.30;;;;;;;3.73;83.27;97529.66;1682926;83;20977;-77
2021/11/22 09:50:36;;;;;;;19.05;9.10;;;;;;;3.80;83.17;97523.49;1643228;87;20987;-77
2021/11/22 09:53:04;;;;;;;15.80;8.88;;;;;;;3.88;82.93;97520.80;1645813;86;21002;-79
2021/11/22 09:55:33;;;;;;;15.30;8.95;;;;;;;3.90;82.77;97518.16;1688470;83;20972;-80
2021/11/22 09:58:02;;;;;;;17.77;9.03;;;;;;;3.96;83.15;97515.00;1683986;85;21032;-79
2021/11/22 10:00:40;;;;;;;16.52;9.23;;;;;;;4.05;82.89;97514.48;1687208;85;21124;-80
2021/11/22 10:03:25;;;;;;;15.48;8.30;;;;;;;4.08;82.39;97514.46;1679020;84;20999;-80
2021/11/22 10:05:57;;;;;;;;;;;;;;;4.05;81.66;97518.42;1692089;84;21019;-80
2021/11/22 10:08:25;;;;;;;13.43;8.00;;;;;;;4.08;82.23;97513.16;1684254;84;20140;-76
2021/11/22 10:10:56;;;;;;;13.50;8.45;;;;;;;4.15;82.66;97513.49;1687948;85;21072;-76
2021/11/22 10:13:40;;;;;;;20.55;9.18;;;;;;;4.25;82.44;97518.63;1682944;85;22116;-77
2021/11/22 10:16:21;;;;;;;17.50;8.93;;;;;;;4.23;81.61;97518.22;1632735;86;21450;-77
2021/11/22 10:18:59;;;;;;;16.45;8.98;;;;;;;4.25;81.62;97506.40;1676879;85;21602;-76
2021/11/22 10:21:36;;;;;;;18.87;10.00;;;;;;;4.29;81.51;97515.09;1672201;85;21045;-76
2021/11/22 10:24:08;;;;;;;16.75;9.80;;;;;;;4.29;81.27;97513.34;1679049;84;21049;-77
2021/11/22 10:26:50;;;;;;;26.02;13.40;;;;;;;4.28;81.03;97520.77;1669325;84;21586;-77
2021/11/22 10:29:27;;;;;;;19.70;9.93;;;;;;;4.28;81.70;97513.36;1665124;84;20981;-77
2021/11/22 10:32:01;;;;;;;17.02;9.60;;;;;;;4.32;81.40;97520.31;1664419;84;21034;-76
2021/11/22 10:34:29;;;;;;;18.45;10.15;;;;;;;4.34;81.83;97515.47;1662925;85;21038;-76
2021/11/22 10:36:58;;;;;;;18.95;10.40;;;;;;;4.40;82.07;97507.95;1649062;86;21470;-76
2021/11/22 10:39:28;;;;;;;18.25;10.95;;;;;;;4.43;82.02;97509.66;1669234;84;21085;-76
2021/11/22 10:41:55;;;;;;;15.78;9.78;;;;;;;4.49;82.05;97505.67;1675384;84;21142;-77
2021/11/22 10:44:30;;;;;;;18.00;10.28;;;;;;;4.46;81.11;97514.45;1663465;84;21414;-76
2021/11/22 10:47:09;;;;;;;;;;;;;;;4.49;81.78;97514.39;1676958;84;21037;-78
2021/11/22 10:49:42;;;;;;;18.67;10.70;;;;;;;4.54;81.32;97496.41;1670107;85;20353;-78
2021/11/22 10:52:23;;;;;;;21.25;10.20;;;;;;;4.56;81.49;97500.75;1665459;84;21081;-83
2021/11/22 10:55:00;;;;;;;19.00;11.30;;;;;;;4.55;81.37;97485.90;1669894;84;21014;-79
2021/11/22 10:57:43;;;;;;;21.73;12.05;;;;;;;4.54;81.30;97494.67;1664729;84;20971;-78
2021/11/22 11:00:24;;;;;;;20.30;12.13;;;;;;;4.54;81.04;97500.34;1669749;84;21410;-75
2021/11/22 11:02:54;;;;;;;17.57;11.08;;;;;;;4.59;80.83;97503.34;1674025;84;20989;-76
2021/11/22 11:05:40;;;;;;;18.55;10.82;;;;;;;4.61;81.42;97501.55;1663461;84;21039;-75
2021/11/22 11:08:12;;;;;;;19.00;11.03;;;;;;;4.62;79.87;97504.59;1672367;84;20982;-75
2021/11/22 11:10:43;;;;;;;19.20;10.93;;;;;;;4.63;81.07;97504.16;1675785;84;22215;-78
2021/11/22 11:13:13;;;;;;;19.73;10.48;;;;;;;4.68;81.58;97506.28;1657181;84;21052;-80
2021/11/22 11:15:39;;;;;;;19.55;11.40;;;;;;;4.78;81.04;97501.78;1670013;84;21043;-76
2021/11/22 11:18:23;;;;;;;17.82;10.48;;;;;;;4.84;81.46;97499.49;1680307;83;21041;-75
2021/11/22 11:20:50;;;;;;;16.80;10.40;;;;;;;4.92;81.28;97495.44;1673797;85;20998;-76
2021/11/22 11:23:18;;;;;;;15.88;10.90;;;;;;;5.00;81.49;97497.08;1656731;83;21053;-76
2021/11/22 11:25:45;;;;;;;18.30;11.35;;;;;;;5.07;81.59;97495.20;1679513;83;21013;-76
2021/11/22 11:28:12;;;;;;;17.55;10.40;;;;;;;5.11;81.97;97486.85;1646923;87;21033;-76
2021/11/22 11:30:39;;;;;;;19.85;12.65;;;;;;;5.23;81.09;97496.30;1640501;87;21474;-76
2021/11/22 11:33:06;;;;;;;20.25;11.70;;;;;;;5.29;81.68;97496.19;1640993;85;21006;-76
2021/11/22 11:35:38;;;;;;;19.98;11.93;;;;;;;5.32;81.50;97495.27;1625003;84;21093;-76
2021/11/22 11:38:19;;;;;;;18.73;11.95;;;;;;;5.34;80.33;97498.73;1681780;85;21025;-76
2021/11/22 11:41:12;;;;;;;17.60;11.38;;;;;;;5.38;80.52;97490.78;1683001;83;21086;-76
2021/11/22 11:44:08;;;;;;;20.00;12.33;;;;;;;5.41;80.09;97491.18;1670716;84;21009;-77
2021/11/22 11:46:47;;;;;;;;;;;;;;;5.41;80.27;97488.09;1681840;84;21026;-77
2021/11/22 11:49:14;;;;;;;22.75;11.88;;;;;;;5.42;80.10;97488.97;1692872;84;20133;-77